โซล, ประเทศเกาหลีใต้

10:29 PM KST วัน กรกฎาคม 31, 2014 (GMT +0900)
IGYEONGG3 Elev 115 ft | 37.53 °N, 126.83 °E | Change Station

Current weather conditions updated 9 minutes ago

Scattered Clouds
มีเมฆคลุมเป็นบางส่วน
81.8 ฟาเรนไฮน์
Feels Like 89 ฟาเรนไฮน์
N
5.0
ลม ความผันแปร ลม from ทางทิศตะวันออกและทิศตะวันออกเฉียงใต้
Gusts 5.0 mph

Tomorrow is forecast to be nearly the same temperature as today.

วันนี้
High -- | Low -- ฟาเรนไฮน์
--% Chance of Precip.
Yesterday
High -- | Low -- ฟาเรนไฮน์
Precip. -- นิ้ว
5:35 AM 7:41 PM
เดือนเสี้ยว, 18% visible
ความดัน 29.83 นิ้ว
ทัศนวิสัย 6.2 ไมล์
เมฆ Few 3500 ft
มีเมฆคลุมเป็นบางส่วน 12000 ft
ดัชนีความร้อน 89 ฟาเรนไฮน์
อุณหภูมิที่อากาศอาจจับตัวเป็นหยาดน้ำค้าง 76 ฟาเรนไฮน์
ความชื้น 83%
Rainfall 0.06 นิ้ว
Snow Depth Not available.
UV 0.0 out of 12
Pollen Not available.
Air Quality Not available.
Flu Activity Not available.
METAR RKSS 311300Z 12007KT 9999 FEW035 SCT120 27/21 Q1010 NOSIG

More Conditions Fewer Conditions

ความดัน 29.83 นิ้ว
ทัศนวิสัย 6.2 ไมล์
เมฆ Few 3500 ft
มีเมฆคลุมเป็นบางส่วน 12000 ft
ดัชนีความร้อน 89 ฟาเรนไฮน์
อุณหภูมิที่อากาศอาจจับตัวเป็นหยาดน้ำค้าง 76 ฟาเรนไฮน์
ความชื้น 83%
Rainfall 0.06 นิ้ว
Snow Depth Not available.
UV 0.0 out of 12
Pollen Not available.
Air Quality Not available.
Flu Activity Not available.
METAR RKSS 311300Z 12007KT 9999 FEW035 SCT120 27/21 Q1010 NOSIG

More Conditions Fewer Conditions

10-Day Weather Forecast

Almanac

ดาราศาสตร์

Jul. 31, 2014 Rise Set
Actual Time 5:35 AM KST 7:41 PM KST
Civil Twilight 5:05 AM KST 8:10 PM KST
Nautical Twilight 4:30 AM KST 8:46 PM KST
Astronomical Twilight 3:51 AM KST 9:24 PM KST
Moon 9:23 AM KST 9:42 PM KST
Length Of Visible Light 15h 04m
ความยาวของวัน
14h 06m
Tomorrow will be 1m 47s shorter.
เดือนเสี้ยว, 18% of the Moon is Illuminated
วันนี้
เดือนเสี้ยว
Aug 3
ไตรมาสแรก
Aug 10
พระจันทร์เต็มดวง
Aug 17
ไตรมาสล่าสุด
Aug 25
New

Yesterday's Extremes

Country Highs Country Lows

Community

WunderPhotos

Upload Photos

1,739,322 photos uploaded!

WunderBlogs® & News

Nearby

Snow Depth

Not available.

Earthquake Activity

City Distance Mag. Time & Date
No recent earthquake activity has been reported nearby.
Minimum magnitude displayed is 2.5.

Coastal Water Temperatures

สถานที่ อุณหภูมิ
No Stations Reporting

Nearby Weather Stations

Station Location Temp ดัชนีความร้อน อุณหภูมิที่อากาศอาจจับตัวเป็นหยาดน้ำค้าง ความชื้น ลม Precip. Elev ปรับปรุงล่าสุด Type
Bucheon3 81.8 ฟาเรนไฮน์ 89 ฟาเรนไฮน์ 76 ฟาเรนไฮน์ 83% ทางทิศตะวันออกและทิศตะวันออกเฉียงใต้  ความเร็วที่  5.0 mph 0.00 นิ้ว / hr 115 ft 10:20 PM KST Normal
Yongin-Si 80.2 ฟาเรนไฮน์ 87 ฟาเรนไฮน์ 78 ฟาเรนไฮน์ 92% ทางทิศตะวันออกเฉียงใต้  ความเร็วที่  0.0 mph 0.00 นิ้ว / hr 312 ft 10:17 PM KST Normal

Show More Stations Show Fewer Stations